Time;durP1;ratioP1;P1;durP2;ratioP2;P2;SDS_P1;SDS_P2;PMS_P1;PMS_P2;Temp;Humidity;BMP_temperature;BMP_pressure;BME280_temperature;BME280_humidity;BME280_pressure;Samples;Min_cycle;Max_cycle;Signal;HPM_P1;HPM_P2
2021/04/05 00:02:15;;;;;;;16.83;8.40;;;6.60;98.80;;;;;;5043442;28;20277;-67
2021/04/05 00:04:41;;;;;;;16.33;7.60;;;6.50;98.60;;;;;;5040104;28;20202;-67
2021/04/05 00:07:06;;;;;;;17.27;7.80;;;6.40;98.80;;;;;;5043662;28;20210;-67
2021/04/05 00:09:32;;;;;;;14.17;7.43;;;6.40;99.80;;;;;;5044903;28;20228;-66
2021/04/05 00:11:59;;;;;;;13.97;7.37;;;6.30;99.90;;;;;;5050467;28;20178;-68
2021/04/05 00:14:26;;;;;;;17.00;8.30;;;6.10;99.90;;;;;;5050396;28;20171;-66
2021/04/05 00:16:52;;;;;;;15.33;7.67;;;6.10;99.90;;;;;;5050671;28;20422;-67
2021/04/05 00:19:18;;;;;;;17.43;7.57;;;6.10;99.90;;;;;;5050263;28;20436;-68
2021/04/05 00:21:43;;;;;;;16.33;7.57;;;6.30;99.90;;;;;;5050379;28;20206;-66
2021/04/05 00:24:10;;;;;;;16.43;7.30;;;6.40;99.90;;;;;;5050445;28;20183;-66
2021/04/05 00:26:36;;;;;;;14.47;6.90;;;6.60;99.90;;;;;;5049304;28;20228;-67
2021/04/05 00:29:01;;;;;;;18.70;7.03;;;6.60;99.90;;;;;;5050490;28;20919;-66
2021/04/05 00:31:27;;;;;;;14.47;6.90;;;6.70;99.90;;;;;;5050237;28;20183;-68
2021/04/05 00:33:53;;;;;;;14.53;7.40;;;6.80;99.90;;;;;;5050227;28;20206;-68
2021/04/05 00:36:19;;;;;;;17.17;7.30;;;6.80;99.90;;;;;;5050408;28;21614;-69
2021/04/05 00:38:44;;;;;;;17.50;7.37;;;6.90;99.50;;;;;;5050149;28;20197;-67
2021/04/05 00:41:13;;;;;;;15.73;6.80;;;6.80;99.00;;;;;;5050915;28;20225;-68
2021/04/05 00:43:41;;;;;;;19.63;7.30;;;6.80;99.20;;;;;;5054141;28;20566;-68
2021/04/05 00:46:07;;;;;;;13.73;7.27;;;6.90;98.20;;;;;;5054263;28;20428;-68
2021/04/05 00:48:34;;;;;;;16.77;7.50;;;6.90;98.90;;;;;;5054177;28;20481;-67
2021/04/05 00:51:06;;;;;;;13.30;6.90;;;6.90;99.00;;;;;;5054308;28;20457;-67
2021/04/05 00:53:34;;;;;;;11.03;6.67;;;6.90;99.10;;;;;;5054100;28;20413;-67
2021/04/05 00:56:01;;;;;;;14.67;7.10;;;6.90;99.40;;;;;;5054089;28;20414;-68
2021/04/05 00:58:27;;;;;;;15.00;7.03;;;6.90;99.00;;;;;;5053677;28;20425;-67
2021/04/05 01:00:59;;;;;;;12.50;6.90;;;6.90;99.10;;;;;;5053871;28;20449;-69
2021/04/05 01:03:26;;;;;;;19.03;7.80;;;6.80;99.30;;;;;;5053975;28;20406;-68
2021/04/05 01:06:12;;;;;;;15.33;7.10;;;6.70;98.50;;;;;;5053834;28;20417;-68
2021/04/05 01:08:38;;;;;;;14.00;6.50;;;6.90;97.60;;;;;;5052956;28;20467;-66
2021/04/05 01:11:05;;;;;;;19.27;6.47;;;7.10;96.20;;;;;;5053767;28;20429;-66
2021/04/05 01:13:31;;;;;;;15.03;6.53;;;7.30;95.50;;;;;;5042106;28;20464;-68
2021/04/05 01:15:56;;;;;;;15.00;6.47;;;7.40;94.90;;;;;;5049880;28;20417;-68
2021/04/05 01:18:22;;;;;;;16.83;6.80;;;7.50;94.20;;;;;;5053858;28;20179;-68
2021/04/05 01:20:48;;;;;;;15.50;5.93;;;7.60;94.00;;;;;;5046711;28;20196;-70
2021/04/05 01:23:16;;;;;;;16.70;6.17;;;7.60;93.90;;;;;;5050775;28;20586;-66
2021/04/05 01:25:42;;;;;;;14.00;6.33;;;7.60;93.70;;;;;;5043967;28;20521;-68
2021/04/05 01:28:08;;;;;;;9.87;5.73;;;7.60;93.60;;;;;;5049130;28;20446;-69
2021/04/05 01:30:41;;;;;;;15.43;6.23;;;7.60;93.50;;;;;;5046206;28;20424;-68
2021/04/05 01:33:16;;;;;;;15.37;6.10;;;7.60;93.60;;;;;;5038125;28;20401;-67
2021/04/05 01:35:53;;;;;;;15.97;6.43;;;7.60;93.60;;;;;;5038436;28;20407;-69
2021/04/05 01:38:24;;;;;;;12.97;6.10;;;7.60;93.50;;;;;;5051267;28;20436;-67
2021/04/05 01:40:57;;;;;;;16.83;6.13;;;7.60;94.10;;;;;;5053135;28;20575;-67
2021/04/05 01:43:22;;;;;;;18.20;6.27;;;7.60;93.90;;;;;;5052821;28;20414;-68
2021/04/05 01:45:48;;;;;;;15.63;6.03;;;7.60;93.80;;;;;;5053271;28;20443;-67
2021/04/05 01:48:14;;;;;;;15.33;5.93;;;7.60;94.00;;;;;;5052803;28;20655;-68
2021/04/05 01:50:42;;;;;;;16.30;6.23;;;7.60;93.90;;;;;;5053142;28;20172;-69
2021/04/05 01:53:08;;;;;;;13.67;5.97;;;7.60;94.10;;;;;;5051858;28;20242;-67
2021/04/05 01:55:35;;;;;;;16.73;5.93;;;7.70;94.00;;;;;;5034814;28;20465;-68
2021/04/05 01:58:02;;;;;;;14.00;5.87;;;7.70;93.60;;;;;;5035426;28;20417;-68
2021/04/05 02:00:31;;;;;;;17.10;6.47;;;7.70;93.60;;;;;;5047205;28;20408;-68
2021/04/05 02:02:57;;;;;;;11.57;5.63;;;7.70;93.80;;;;;;5045411;28;20421;-68
2021/04/05 02:05:27;;;;;;;19.30;7.20;;;7.70;94.00;;;;;;5039310;28;20446;-68
2021/04/05 02:07:53;;;;;;;15.13;6.67;;;7.70;93.80;;;;;;5052534;28;20491;-68
2021/04/05 02:10:24;;;;;;;17.20;6.50;;;7.70;94.10;;;;;;5052756;28;20418;-68
2021/04/05 02:12:51;;;;;;;13.03;6.10;;;7.70;93.90;;;;;;5051849;28;20213;-68
2021/04/05 02:15:18;;;;;;;17.97;5.90;;;7.80;94.00;;;;;;5052628;28;20421;-68
2021/04/05 02:17:45;;;;;;;14.30;5.70;;;7.70;94.20;;;;;;5052541;28;20849;-67
2021/04/05 02:20:13;;;;;;;16.13;6.03;;;7.60;94.50;;;;;;5051483;28;20500;-68
2021/04/05 02:22:43;;;;;;;12.93;6.53;;;7.70;94.30;;;;;;5052556;28;20499;-70
2021/04/05 02:25:20;;;;;;;13.37;5.43;;;7.60;94.70;;;;;;5034376;28;20505;-68
2021/04/05 02:27:47;;;;;;;13.90;6.70;;;7.70;94.70;;;;;;5052321;28;20973;-68
2021/04/05 02:30:24;;;;;;;13.20;6.27;;;7.70;94.80;;;;;;5052298;28;20406;-68
2021/04/05 02:32:53;;;;;;;15.20;6.60;;;7.60;94.80;;;;;;5052323;28;20413;-71
2021/04/05 02:35:19;;;;;;;17.00;6.73;;;7.60;95.10;;;;;;5052332;28;20508;-68
2021/04/05 02:37:45;;;;;;;18.03;5.97;;;7.70;95.30;;;;;;5052163;28;20513;-68
2021/04/05 02:40:12;;;;;;;16.43;6.40;;;7.60;95.10;;;;;;5034496;28;20185;-68
2021/04/05 02:42:39;;;;;;;12.77;6.23;;;7.70;95.20;;;;;;5051916;28;20233;-68
2021/04/05 02:45:08;;;;;;;12.70;5.83;;;7.80;95.20;;;;;;5051978;28;20837;-67
2021/04/05 02:47:35;;;;;;;15.00;5.83;;;7.70;95.10;;;;;;5052073;28;20418;-68
2021/04/05 02:50:04;;;;;;;17.07;6.37;;;7.70;95.10;;;;;;5050173;28;20473;-68
2021/04/05 02:52:33;;;;;;;16.13;6.13;;;7.60;95.30;;;;;;5047099;28;20444;-67
2021/04/05 02:54:58;;;;;;;14.90;6.13;;;7.60;96.00;;;;;;5051844;28;20409;-68
2021/04/05 02:57:24;;;;;;;16.43;6.70;;;7.50;95.80;;;;;;5051678;28;20533;-66
2021/04/05 02:59:52;;;;;;;15.60;5.80;;;7.50;95.90;;;;;;5051726;28;20191;-69
2021/04/05 03:02:18;;;;;;;17.33;6.00;;;7.50;96.10;;;;;;5051676;28;20219;-69
2021/04/05 03:04:44;;;;;;;18.33;7.60;;;7.40;96.80;;;;;;5051430;28;20405;-68
2021/04/05 03:07:09;;;;;;;15.07;6.80;;;7.30;97.00;;;;;;5050136;28;20175;-68
2021/04/05 03:09:35;;;;;;;17.03;7.03;;;7.30;97.40;;;;;;5031987;28;20261;-68
2021/04/05 03:12:01;;;;;;;17.67;6.87;;;7.20;97.80;;;;;;5031513;28;20182;-67
2021/04/05 03:14:28;;;;;;;15.47;6.20;;;7.20;98.00;;;;;;5039896;28;21665;-68
2021/04/05 03:16:56;;;;;;;18.80;7.43;;;7.20;97.90;;;;;;5040665;28;20422;-67
2021/04/05 03:19:23;;;;;;;17.20;7.23;;;7.20;98.30;;;;;;5045512;28;20722;-68
2021/04/05 03:21:49;;;;;;;16.50;6.97;;;7.20;98.70;;;;;;5031384;28;20446;-69
2021/04/05 03:24:15;;;;;;;16.97;6.30;;;7.30;99.10;;;;;;5045298;28;20446;-68
2021/04/05 03:26:41;;;;;;;16.77;7.60;;;7.30;98.40;;;;;;5047058;28;20410;-68
2021/04/05 03:29:11;;;;;;;19.10;7.13;;;7.40;98.40;;;;;;5051400;28;20546;-68
2021/04/05 03:31:39;;;;;;;15.93;7.50;;;7.40;98.40;;;;;;5051087;28;20688;-70
2021/04/05 03:34:12;;;;;;;22.20;7.50;;;7.40;98.40;;;;;;5050998;28;20441;-67
2021/04/05 03:36:46;;;;;;;16.23;7.63;;;7.40;98.40;;;;;;5051108;28;20429;-67
2021/04/05 03:39:14;;;;;;;14.77;7.60;;;7.40;98.20;;;;;;5051091;28;20810;-68
2021/04/05 03:41:53;;;;;;;17.93;7.90;;;7.50;98.40;;;;;;5050860;28;20870;-68
2021/04/05 03:44:44;;;;;;;21.33;8.13;;;7.50;98.30;;;;;;5050931;28;20445;-67
2021/04/05 03:47:27;;;;;;;21.30;9.40;;;7.40;98.30;;;;;;5050846;28;20524;-67
2021/04/05 03:50:08;;;;;;;21.40;9.47;;;7.50;98.10;;;;;;5051111;28;20445;-69
2021/04/05 03:52:56;;;;;;;21.87;8.67;;;7.50;98.30;;;;;;5050753;28;20492;-68
2021/04/05 03:55:26;;;;;;;18.47;8.47;;;7.50;98.50;;;;;;5050921;28;20725;-68
2021/04/05 03:57:55;;;;;;;20.13;8.77;;;7.50;98.20;;;;;;5050498;28;20899;-69
2021/04/05 04:00:25;;;;;;;16.90;8.37;;;7.50;98.30;;;;;;5050684;28;20421;-68
2021/04/05 04:02:52;;;;;;;25.50;8.43;;;7.50;98.30;;;;;;5050633;28;21042;-66
2021/04/05 04:05:29;;;;;;;16.43;8.03;;;7.60;98.50;;;;;;5050857;28;20737;-67
2021/04/05 04:08:05;;;;;;;14.73;5.87;;;7.50;98.80;;;;;;5039745;28;20414;-67
2021/04/05 04:10:33;;;;;;;19.90;9.13;;;7.50;98.70;;;;;;5050068;28;20417;-67
2021/04/05 04:13:10;;;;;;;20.00;9.70;;;7.50;98.80;;;;;;5040198;28;20417;-68
2021/04/05 04:15:36;;;;;;;18.07;9.00;;;7.50;98.70;;;;;;5029868;28;20429;-68
2021/04/05 04:18:03;;;;;;;20.60;8.57;;;7.50;98.70;;;;;;5030413;28;20865;-68
2021/04/05 04:20:29;;;;;;;20.33;9.33;;;7.60;98.70;;;;;;5048736;28;20423;-66
2021/04/05 04:22:56;;;;;;;18.70;9.80;;;7.60;98.80;;;;;;5042498;28;21031;-67
2021/04/05 04:25:22;;;;;;;19.40;9.33;;;7.60;98.60;;;;;;5030365;28;20499;-68
2021/04/05 04:27:48;;;;;;;19.00;9.03;;;7.50;98.90;;;;;;5046854;28;20520;-69
2021/04/05 04:30:31;;;;;;;17.43;9.23;;;7.50;99.00;;;;;;5050346;28;20301;-70
2021/04/05 04:33:05;;;;;;;19.03;8.87;;;7.50;99.20;;;;;;5037952;28;20662;-68
2021/04/05 04:35:32;;;;;;;24.10;9.00;;;7.50;99.50;;;;;;5042052;28;20421;-69
2021/04/05 04:37:58;;;;;;;21.37;10.30;;;7.40;99.20;;;;;;5039406;28;20466;-67
2021/04/05 04:40:29;;;;;;;19.33;10.07;;;7.40;99.00;;;;;;5050155;28;20424;-68
2021/04/05 04:42:57;;;;;;;16.93;10.37;;;7.40;99.00;;;;;;5043122;28;20449;-69
2021/04/05 04:45:23;;;;;;;21.23;10.73;;;7.40;98.80;;;;;;5050170;28;20775;-67
2021/04/05 04:47:51;;;;;;;22.20;11.60;;;7.40;99.00;;;;;;5050351;28;20414;-69
2021/04/05 04:50:17;;;;;;;22.03;12.10;;;7.40;99.10;;;;;;5032235;28;20465;-69
2021/04/05 04:52:43;;;;;;;23.30;11.53;;;7.30;99.50;;;;;;5050004;28;20806;-69
2021/04/05 04:55:10;;;;;;;25.33;12.20;;;7.30;99.50;;;;;;5046152;28;20513;-67
2021/04/05 04:57:36;;;;;;;27.93;11.83;;;7.30;99.60;;;;;;5048388;28;20626;-68
2021/04/05 05:00:04;;;;;;;25.57;12.67;;;7.30;99.30;;;;;;5031668;28;20473;-70
2021/04/05 05:02:31;;;;;;;27.47;12.80;;;7.30;99.10;;;;;;5038278;28;20215;-69
2021/04/05 05:04:58;;;;;;;25.43;13.13;;;7.30;99.50;;;;;;5037267;28;20422;-68
2021/04/05 05:07:25;;;;;;;21.90;10.50;;;7.20;99.40;;;;;;5045152;28;20417;-68
2021/04/05 05:09:51;;;;;;;24.97;14.03;;;7.30;99.50;;;;;;5039705;28;20536;-68
2021/04/05 05:12:17;;;;;;;27.33;14.50;;;7.30;98.90;;;;;;5050090;28;20417;-68
2021/04/05 05:14:44;;;;;;;32.13;14.63;;;7.30;98.80;;;;;;5049809;28;20431;-69
2021/04/05 05:17:10;;;;;;;29.90;15.60;;;7.40;98.70;;;;;;5049747;28;20516;-69
2021/04/05 05:19:39;;;;;;;32.13;14.40;;;7.30;98.50;;;;;;5049821;28;20414;-67
2021/04/05 05:22:07;;;;;;;28.90;15.17;;;7.40;98.70;;;;;;5041069;28;20952;-66
2021/04/05 05:24:36;;;;;;;29.00;13.93;;;7.40;98.40;;;;;;5040959;28;20987;-70
2021/04/05 05:27:03;;;;;;;33.13;15.37;;;7.40;98.60;;;;;;5027307;28;20434;-69
2021/04/05 05:29:29;;;;;;;25.90;14.20;;;7.40;98.20;;;;;;5033593;28;20505;-68
2021/04/05 05:31:55;;;;;;;19.13;9.60;;;7.40;98.50;;;;;;5036717;28;20774;-69
2021/04/05 05:34:23;;;;;;;27.03;14.67;;;7.40;98.30;;;;;;5053339;28;20774;-68
2021/04/05 05:36:49;;;;;;;33.97;16.73;;;7.40;98.50;;;;;;5044999;28;20496;-68
2021/04/05 05:39:16;;;;;;;30.20;15.47;;;7.40;98.80;;;;;;5053297;28;20424;-69
2021/04/05 05:41:54;;;;;;;30.57;15.03;;;7.40;98.30;;;;;;5053198;28;20449;-70
2021/04/05 05:44:52;;;;;;;27.23;16.57;;;7.40;98.40;;;;;;5044828;28;20444;-68
2021/04/05 05:47:44;;;;;;;31.33;16.37;;;7.40;98.30;;;;;;5052161;28;20467;-69
2021/04/05 05:50:31;;;;;;;28.80;13.63;;;7.40;98.40;;;;;;5053041;28;20441;-71
2021/04/05 05:53:03;;;;;;;31.97;16.90;;;7.40;98.80;;;;;;5052814;28;20873;-67
2021/04/05 05:56:10;;;;;;;17.93;9.97;;;7.50;98.80;;;;;;5052947;28;20425;-68
2021/04/05 05:58:58;;;;;;;26.53;14.43;;;7.50;98.80;;;;;;5026229;28;20430;-69
2021/04/05 06:01:42;;;;;;;31.17;17.50;;;7.40;98.60;;;;;;5052576;28;20453;-68
2021/04/05 06:04:58;;;;;;;29.70;16.43;;;7.50;99.00;;;;;;5052782;28;20460;-68
2021/04/05 06:07:54;;;;;;;33.80;17.47;;;7.50;98.70;;;;;;5022621;28;20472;-69
2021/04/05 06:10:30;;;;;;;33.03;17.53;;;7.50;98.40;;;;;;5052252;28;20481;-69
2021/04/05 06:13:18;;;;;;;33.30;19.23;;;7.60;98.70;;;;;;5052855;28;20489;-68
2021/04/05 06:15:53;;;;;;;32.63;17.87;;;7.60;98.50;;;;;;5046872;28;20426;-69
2021/04/05 06:18:53;;;;;;;32.60;18.33;;;7.60;98.30;;;;;;5044239;28;20443;-68
2021/04/05 06:21:43;;;;;;;30.87;17.80;;;7.70;98.40;;;;;;5052200;28;20452;-69
2021/04/05 06:24:19;;;;;;;32.27;17.17;;;7.70;98.40;;;;;;5052777;28;20548;-67
2021/04/05 06:26:50;;;;;;;29.97;16.97;;;7.80;98.50;;;;;;5052576;28;20448;-69
2021/04/05 06:29:22;;;;;;;35.10;18.87;;;7.80;98.10;;;;;;5052319;28;20413;-63
2021/04/05 06:31:51;;;;;;;31.73;18.47;;;7.70;98.20;;;;;;5052614;28;20421;-68
2021/04/05 06:34:19;;;;;;;38.97;17.93;;;7.70;98.30;;;;;;5051341;28;20410;-68
2021/04/05 06:37:07;;;;;;;30.60;17.60;;;7.80;98.60;;;;;;5052916;28;20904;-69
2021/04/05 06:39:39;;;;;;;26.27;15.03;;;7.80;98.20;;;;;;5050566;28;20405;-66
2021/04/05 06:42:49;;;;;;;31.23;17.90;;;7.90;98.30;;;;;;5043975;28;20979;-67
2021/04/05 06:45:15;;;;;;;31.10;14.50;;;7.90;98.10;;;;;;5048399;28;20886;-68
2021/04/05 06:47:43;;;;;;;34.80;19.17;;;7.90;98.10;;;;;;5052211;28;20484;-66
2021/04/05 06:50:29;;;;;;;30.57;17.17;;;7.90;98.00;;;;;;5052624;28;20213;-69
2021/04/05 06:53:36;;;;;;;27.70;13.50;;;8.00;97.50;;;;;;5052515;28;20409;-65
2021/04/05 06:56:10;;;;;;;31.50;16.37;;;7.90;97.20;;;;;;5044147;28;20827;-67
2021/04/05 06:58:55;;;;;;;29.03;17.57;;;8.00;97.40;;;;;;5042162;28;20803;-68
2021/04/05 07:01:46;;;;;;;39.67;19.33;;;8.10;96.90;;;;;;5047202;28;20460;-67
2021/04/05 07:04:36;;;;;;;34.97;18.07;;;8.20;96.90;;;;;;5051552;28;20566;-69
2021/04/05 07:07:11;;;;;;;30.53;17.33;;;8.20;96.30;;;;;;5051153;28;20429;-67
2021/04/05 07:09:42;;;;;;;33.63;16.07;;;8.20;95.80;;;;;;5050553;28;20417;-68
2021/04/05 07:12:38;;;;;;;28.47;16.73;;;8.20;95.00;;;;;;5052239;28;20849;-66
2021/04/05 07:15:23;;;;;;;24.10;12.90;;;8.20;95.50;;;;;;5047587;28;20492;-67
2021/04/05 07:18:26;;;;;;;21.47;9.63;;;8.20;94.70;;;;;;5050780;28;20450;-68
2021/04/05 07:21:13;;;;;;;26.27;14.07;;;8.20;94.10;;;;;;5050748;28;20433;-68
2021/04/05 07:24:17;;;;;;;30.93;16.83;;;8.20;94.40;;;;;;5051302;28;20413;-69
2021/04/05 07:26:52;;;;;;;27.80;15.03;;;8.30;94.80;;;;;;5037970;28;20409;-69
2021/04/05 07:29:59;;;;;;;36.20;18.20;;;8.20;94.60;;;;;;5051751;28;20456;-68
2021/04/05 07:33:06;;;;;;;34.73;16.17;;;8.20;95.30;;;;;;5051077;28;20420;-68
2021/04/05 07:35:40;;;;;;;29.57;14.90;;;8.40;94.80;;;;;;5029390;28;20570;-68
2021/04/05 07:38:15;;;;;;;24.37;12.50;;;8.40;94.00;;;;;;5050726;28;20414;-67
2021/04/05 07:40:50;;;;;;;29.07;14.97;;;8.40;93.30;;;;;;5051753;28;20425;-69
2021/04/05 07:43:41;;;;;;;30.67;16.10;;;8.30;93.60;;;;;;5037424;28;20475;-67
2021/04/05 07:46:26;;;;;;;29.93;15.03;;;8.40;93.70;;;;;;5050966;28;20477;-67
2021/04/05 07:49:10;;;;;;;25.23;15.43;;;8.40;93.50;;;;;;5051348;28;20481;-68
2021/04/05 07:51:52;;;;;;;28.27;15.37;;;8.40;93.10;;;;;;5051453;28;20834;-69
2021/04/05 07:54:23;;;;;;;24.87;14.77;;;8.50;93.70;;;;;;5051231;28;20421;-67
2021/04/05 07:57:14;;;;;;;31.63;17.07;;;8.50;93.00;;;;;;5033251;28;20951;-68
2021/04/05 08:00:02;;;;;;;25.73;14.83;;;8.60;93.70;;;;;;5050854;28;20432;-68
2021/04/05 08:02:43;;;;;;;22.17;9.03;;;8.80;93.30;;;;;;5051006;28;20489;-69
2021/04/05 08:05:46;;;;;;;29.13;15.47;;;8.80;92.20;;;;;;5049857;28;20436;-67
2021/04/05 08:08:26;;;;;;;24.00;10.63;;;8.80;92.70;;;;;;5047604;28;20490;-67
2021/04/05 08:11:24;;;;;;;31.23;15.97;;;8.90;92.40;;;;;;5050660;28;20433;-67
2021/04/05 08:14:08;;;;;;;31.47;16.63;;;8.80;92.60;;;;;;5037728;28;20809;-67
2021/04/05 08:16:52;;;;;;;26.83;16.93;;;8.80;93.50;;;;;;5049256;28;20460;-66
2021/04/05 08:19:56;;;;;;;32.10;14.60;;;8.80;93.20;;;;;;5050499;28;20492;-68
2021/04/05 08:22:39;;;;;;;30.83;16.57;;;8.90;93.30;;;;;;5040704;28;20801;-67
2021/04/05 08:26:13;;;;;;;27.33;16.63;;;9.00;93.00;;;;;;5032068;28;20429;-66
2021/04/05 08:28:41;;;;;;;36.20;18.87;;;9.00;93.90;;;;;;5039648;28;20871;-67
2021/04/05 08:31:18;;;;;;;29.43;16.90;;;9.10;92.90;;;;;;5031604;28;20506;-66
2021/04/05 08:34:12;;;;;;;27.17;15.97;;;9.10;92.90;;;;;;5027247;28;20417;-67
2021/04/05 08:36:46;;;;;;;25.40;14.97;;;9.10;92.90;;;;;;5049419;28;20467;-68
2021/04/05 08:39:30;;;;;;;30.90;16.97;;;9.10;93.10;;;;;;5049695;28;20405;-69
2021/04/05 08:42:19;;;;;;;26.07;15.50;;;9.20;93.60;;;;;;5031012;28;20464;-68
2021/04/05 08:45:16;;;;;;;29.10;15.80;;;9.20;93.30;;;;;;5050302;28;20412;-66
2021/04/05 08:47:47;;;;;;;20.07;11.43;;;9.20;93.40;;;;;;5049793;28;20920;-67
2021/04/05 08:50:15;;;;;;;31.80;17.43;;;9.30;93.20;;;;;;5050470;28;20441;-66
2021/04/05 08:52:45;;;;;;;30.23;16.17;;;9.30;92.60;;;;;;5032568;28;20417;-66
2021/04/05 08:55:22;;;;;;;24.67;15.40;;;9.40;92.60;;;;;;5050250;28;20911;-67
2021/04/05 08:57:55;;;;;;;29.20;16.73;;;9.50;92.70;;;;;;5048938;28;20821;-65
2021/04/05 09:00:23;;;;;;;26.03;14.10;;;9.40;92.70;;;;;;5038685;28;20414;-68
2021/04/05 09:02:55;;;;;;;28.47;15.80;;;9.30;92.90;;;;;;5032127;28;20484;-68
2021/04/05 09:05:26;;;;;;;30.07;16.73;;;9.40;93.20;;;;;;5034113;28;20514;-70
2021/04/05 09:08:05;;;;;;;28.77;14.30;;;9.50;93.20;;;;;;5041219;28;20424;-68
2021/04/05 09:10:41;;;;;;;29.20;16.60;;;9.60;92.70;;;;;;5050745;28;20454;-68
2021/04/05 09:13:11;;;;;;;31.90;16.03;;;9.50;92.70;;;;;;5053669;28;20444;-66
2021/04/05 09:16:14;;;;;;;28.20;13.50;;;9.50;92.70;;;;;;5036357;28;20421;-67
2021/04/05 09:19:15;;;;;;;29.23;15.20;;;9.50;92.70;;;;;;5053963;28;20440;-67
2021/04/05 09:22:22;;;;;;;30.27;14.57;;;9.50;92.90;;;;;;5027685;28;20462;-67
2021/04/05 09:24:59;;;;;;;23.33;13.57;;;9.50;92.70;;;;;;5052681;28;20409;-67
2021/04/05 09:28:00;;;;;;;30.07;16.37;;;9.50;93.00;;;;;;5053567;28;20742;-66
2021/04/05 09:31:07;;;;;;;23.23;12.47;;;9.40;93.40;;;;;;4972660;28;20463;-68
2021/04/05 09:33:32;;;;;;;30.47;16.50;;;9.40;93.20;;;;;;5053947;28;20413;-69
2021/04/05 09:36:16;;;;;;;16.53;9.10;;;9.50;93.40;;;;;;5053925;28;20960;-69
2021/04/05 09:38:51;;;;;;;29.23;15.43;;;9.50;93.10;;;;;;5042362;28;20180;-67
2021/04/05 09:41:52;;;;;;;31.13;15.10;;;9.60;93.00;;;;;;5038725;28;20441;-69
2021/04/05 09:44:45;;;;;;;16.23;8.40;;;9.60;93.00;;;;;;5029327;28;20412;-68
2021/04/05 09:47:32;;;;;;;24.33;13.87;;;9.60;92.60;;;;;;5053531;28;20418;-68
2021/04/05 09:50:03;;;;;;;28.03;15.80;;;9.60;93.00;;;;;;5052938;28;20457;-67
2021/04/05 09:52:38;;;;;;;23.57;12.43;;;9.60;93.10;;;;;;5053218;28;20437;-66
2021/04/05 09:55:11;;;;;;;32.60;16.30;;;9.50;93.10;;;;;;5052795;28;20622;-69
2021/04/05 09:57:40;;;;;;;34.10;17.23;;;9.60;93.60;;;;;;5053566;28;20755;-68
2021/04/05 10:00:16;;;;;;;24.80;14.83;;;9.60;93.40;;;;;;5049282;28;20775;-67
2021/04/05 10:03:14;;;;;;;29.33;16.57;;;9.50;93.40;;;;;;5037348;28;20457;-66
2021/04/05 10:05:45;;;;;;;23.03;11.90;;;9.50;93.80;;;;;;5038244;28;20426;-68
2021/04/05 10:08:15;;;;;;;27.90;16.50;;;9.50;93.50;;;;;;5053375;28;20406;-66
2021/04/05 10:10:43;;;;;;;28.43;16.33;;;9.50;93.80;;;;;;5053315;28;20448;-69
2021/04/05 10:13:11;;;;;;;32.80;16.90;;;9.50;94.00;;;;;;5050068;28;20414;-68
2021/04/05 10:15:37;;;;;;;30.03;16.47;;;9.50;94.80;;;;;;5052635;28;20414;-68
2021/04/05 10:18:10;;;;;;;36.20;16.47;;;9.50;94.30;;;;;;5052472;28;20845;-66
2021/04/05 10:20:36;;;;;;;28.73;16.40;;;9.50;94.40;;;;;;5051955;28;20418;-68
2021/04/05 10:23:08;;;;;;;28.20;17.40;;;9.50;94.60;;;;;;5050319;28;22211;-68
2021/04/05 10:25:35;;;;;;;31.77;18.00;;;9.50;94.20;;;;;;5052527;28;20417;-67
2021/04/05 10:28:03;;;;;;;21.23;13.07;;;9.50;94.20;;;;;;5052702;28;20421;-68
2021/04/05 10:30:39;;;;;;;34.63;17.80;;;9.60;94.10;;;;;;5052695;28;20513;-68
2021/04/05 10:33:16;;;;;;;27.23;16.30;;;9.60;94.50;;;;;;5053012;28;20530;-68
2021/04/05 10:35:46;;;;;;;29.67;16.90;;;9.80;94.00;;;;;;5053018;28;20424;-68
2021/04/05 10:38:15;;;;;;;25.13;11.63;;;9.90;93.70;;;;;;5052544;28;20432;-68
2021/04/05 10:40:42;;;;;;;20.93;10.27;;;9.90;93.00;;;;;;5052498;28;20413;-67
2021/04/05 10:43:15;;;;;;;27.70;12.33;;;9.80;93.00;;;;;;5052982;28;20453;-68
2021/04/05 10:45:46;;;;;;;26.37;10.17;;;9.70;92.80;;;;;;5044375;28;20452;-69
2021/04/05 10:48:19;;;;;;;25.37;14.23;;;9.60;93.20;;;;;;5039086;28;20415;-66
2021/04/05 10:50:52;;;;;;;33.73;15.73;;;9.60;93.50;;;;;;5052043;28;20483;-68
2021/04/05 10:53:20;;;;;;;27.47;14.23;;;9.60;93.20;;;;;;5052631;28;20421;-70
2021/04/05 10:56:06;;;;;;;29.77;16.17;;;9.50;93.40;;;;;;5052536;28;20899;-67
2021/04/05 10:58:47;;;;;;;22.80;12.97;;;9.60;93.40;;;;;;5049622;28;20428;-69
2021/04/05 11:01:15;;;;;;;26.77;14.20;;;9.60;93.60;;;;;;5035334;28;20976;-69
2021/04/05 11:03:53;;;;;;;24.57;12.93;;;9.70;93.30;;;;;;5049072;28;20422;-68
2021/04/05 11:06:21;;;;;;;22.43;11.17;;;9.70;93.20;;;;;;5031364;28;20946;-69
2021/04/05 11:08:50;;;;;;;21.93;12.00;;;9.90;92.90;;;;;;5032217;28;20407;-70
2021/04/05 11:11:20;;;;;;;27.00;12.80;;;9.90;92.30;;;;;;5031960;28;20410;-67
2021/04/05 11:13:52;;;;;;;24.33;12.10;;;10.00;92.80;;;;;;5031821;28;20445;-68
2021/04/05 11:16:20;;;;;;;16.37;9.70;;;10.10;91.70;;;;;;5032115;28;20415;-70
2021/04/05 11:19:02;;;;;;;16.50;9.53;;;10.20;91.90;;;;;;5032040;28;20809;-68
2021/04/05 11:21:43;;;;;;;23.20;12.43;;;10.10;91.90;;;;;;5031569;28;20856;-68
2021/04/05 11:24:12;;;;;;;25.63;12.57;;;9.90;92.40;;;;;;5032463;28;20564;-70
2021/04/05 11:26:39;;;;;;;15.50;9.20;;;9.90;92.30;;;;;;5031777;28;20410;-70
2021/04/05 11:29:08;;;;;;;23.67;11.90;;;9.80;92.40;;;;;;5031975;28;20422;-70
2021/04/05 11:31:41;;;;;;;23.57;11.87;;;9.80;92.80;;;;;;5031421;28;20513;-69
2021/04/05 11:34:08;;;;;;;18.83;10.73;;;9.70;93.00;;;;;;5030822;28;20441;-69
2021/04/05 11:36:44;;;;;;;20.13;11.00;;;9.80;93.30;;;;;;5031069;28;20434;-68
2021/04/05 11:39:14;;;;;;;18.63;11.43;;;9.70;92.90;;;;;;5031682;28;20402;-70
2021/04/05 11:41:41;;;;;;;19.43;12.90;;;9.70;93.30;;;;;;5031402;28;20442;-70
2021/04/05 11:44:09;;;;;;;17.60;11.07;;;9.70;93.30;;;;;;5031215;28;20422;-70
2021/04/05 11:46:37;;;;;;;14.43;6.37;;;9.60;93.40;;;;;;5031538;28;20431;-70
2021/04/05 11:49:11;;;;;;;20.37;10.83;;;9.50;94.10;;;;;;5031409;28;20242;-66
2021/04/05 11:51:46;;;;;;;22.10;11.10;;;9.50;94.80;;;;;;5031674;28;20425;-68
2021/04/05 11:54:29;;;;;;;21.23;10.77;;;9.40;96.20;;;;;;5050550;28;20413;-69
2021/04/05 11:56:58;;;;;;;17.30;10.23;;;9.30;96.20;;;;;;5050788;28;20443;-68
2021/04/05 11:59:28;;;;;;;20.00;10.40;;;9.20;96.30;;;;;;5050826;28;20445;-69
2021/04/05 12:02:02;;;;;;;18.10;10.53;;;9.20;97.00;;;;;;5050351;28;20587;-69
2021/04/05 12:04:45;;;;;;;17.17;10.03;;;9.10;96.40;;;;;;5050872;28;20774;-68
2021/04/05 12:07:13;;;;;;;19.47;9.67;;;9.20;96.60;;;;;;5051115;28;20414;-67
2021/04/05 12:09:43;;;;;;;13.70;8.07;;;9.20;97.50;;;;;;5050829;28;20480;-68
2021/04/05 12:12:36;;;;;;;16.50;9.73;;;9.20;97.70;;;;;;5050813;28;20495;-68
2021/04/05 12:15:04;;;;;;;16.70;9.63;;;9.20;97.50;;;;;;5050182;28;20532;-67
2021/04/05 12:17:31;;;;;;;12.30;8.23;;;9.20;98.30;;;;;;5051080;28;20893;-69
2021/04/05 12:19:58;;;;;;;15.73;9.70;;;9.10;98.00;;;;;;5050646;28;20413;-70
2021/04/05 12:22:27;;;;;;;14.60;9.73;;;9.10;99.40;;;;;;5050786;28;20453;-66
2021/04/05 12:24:54;;;;;;;14.50;8.37;;;9.00;99.60;;;;;;5050902;28;20420;-67
2021/04/05 12:27:35;;;;;;;18.37;9.40;;;8.90;99.70;;;;;;5050596;28;20416;-68
2021/04/05 12:30:05;;;;;;;13.20;6.07;;;8.90;99.90;;;;;;5050804;28;20896;-67
2021/04/05 12:32:31;;;;;;;11.27;6.47;;;8.90;99.40;;;;;;5049303;28;20418;-68
2021/04/05 12:35:00;;;;;;;10.33;6.73;;;9.00;99.90;;;;;;5050348;28;20422;-70
2021/04/05 12:37:28;;;;;;;12.40;7.67;;;9.10;99.90;;;;;;5051859;28;20417;-68
2021/04/05 12:39:59;;;;;;;15.03;8.13;;;9.10;99.90;;;;;;5054430;28;20436;-67
2021/04/05 12:42:34;;;;;;;14.17;9.73;;;9.10;99.90;;;;;;5053111;28;20488;-68
2021/04/05 12:45:03;;;;;;;18.03;10.17;;;9.00;99.90;;;;;;5054446;28;20421;-67
2021/04/05 12:47:37;;;;;;;12.47;8.20;;;9.00;99.90;;;;;;5035835;28;20425;-69
2021/04/05 12:50:09;;;;;;;14.63;9.67;;;9.10;99.90;;;;;;5054810;28;20456;-68
2021/04/05 12:52:38;;;;;;;12.77;7.10;;;9.00;99.90;;;;;;5053035;28;20504;-69
2021/04/05 12:55:15;;;;;;;11.37;9.10;;;8.90;99.90;;;;;;5054619;28;20426;-67
2021/04/05 12:57:40;;;;;;;10.43;7.70;;;8.80;99.90;;;;;;5054415;28;20946;-66
2021/04/05 13:00:20;;;;;;;16.63;8.13;;;8.70;99.90;;;;;;5054087;28;20453;-67
2021/04/05 13:02:59;;;;;;;13.00;8.93;;;8.60;99.90;;;;;;5054200;28;20199;-66
2021/04/05 13:05:46;;;;;;;14.40;9.47;;;8.60;99.90;;;;;;5054301;28;20892;-67
2021/04/05 13:08:46;;;;;;;13.17;9.97;;;8.60;99.90;;;;;;5054116;28;20436;-68
2021/04/05 13:11:25;;;;;;;16.07;10.40;;;8.60;99.90;;;;;;5053714;28;20409;-68
2021/04/05 13:14:05;;;;;;;15.40;9.90;;;8.60;99.90;;;;;;5053532;28;20477;-68
2021/04/05 13:16:35;;;;;;;15.40;9.37;;;8.60;99.90;;;;;;5054511;28;20479;-69
2021/04/05 13:19:08;;;;;;;16.93;9.63;;;8.60;99.90;;;;;;5054501;28;20455;-68